Landover Hills, Maryland
Current Conditions -  °F | °C
As of 6:05 PM on Tuesday 21 Oct 2014 (Local Time) from KCGS Reporting Station
Overcast Overcast  
Wind Chill: 59°   Ceiling: 4800
Heat Index: 59°   Visibility: 5mi
Dew Point: 52°   Wind: 3mph
Humidity: 77%   Direction: 290°WNW
Pressure: 29.84"   Gusts: NA
Location:  38.9535°N, 76.8858°W
Report Text: KCGS 212205Z AUTO 29003KT 5SM OVC048 15/11 A2984 RMK AO1
Loading
Personal Weather Stations






























Interactive Weather Map
Tropical Storm Tracking
New forecast layout! Learn more

10-Day Weather Forecast

Advertisements
Track Severe Weather on mobile